Time;durP1;ratioP1;P1;durP2;ratioP2;P2;SDS_P1;SDS_P2;PMS_P1;PMS_P2;Temp;Humidity;BMP_temperature;BMP_pressure;BME280_temperature;BME280_humidity;BME280_pressure;Samples;Min_cycle;Max_cycle;Signal;HPM_P1;HPM_P2
2021/10/23 00:01:35;;;;;;;5.30;2.70;;;4.50;99.90;;;;;;5006511;28;20240;-81
2021/10/23 00:04:00;;;;;;;7.47;2.47;;;4.60;99.90;;;;;;5011329;28;20201;-80
2021/10/23 00:06:26;;;;;;;4.07;2.10;;;4.50;99.90;;;;;;5008522;28;20755;-79
2021/10/23 00:08:52;;;;;;;5.70;1.87;;;4.50;99.90;;;;;;4992163;28;20663;-80
2021/10/23 00:11:17;;;;;;;4.40;2.33;;;4.30;99.90;;;;;;5018708;28;20190;-80
2021/10/23 00:13:43;;;;;;;7.73;2.37;;;4.30;99.90;;;;;;5016867;28;20179;-80
2021/10/23 00:16:10;;;;;;;6.13;2.73;;;4.30;99.90;;;;;;5015868;28;20183;-81
2021/10/23 00:18:36;;;;;;;6.87;2.80;;;4.30;99.90;;;;;;5015481;28;20613;-80
2021/10/23 00:21:02;;;;;;;6.10;3.40;;;4.30;99.90;;;;;;5012896;28;20203;-79
2021/10/23 00:23:27;;;;;;;21.40;13.70;;;4.30;99.90;;;;;;5018229;28;20557;-80
2021/10/23 00:25:54;;;;;;;30.37;16.63;;;4.20;99.90;;;;;;5018401;28;20286;-81
2021/10/23 00:28:20;;;;;;;5.60;5.00;;;3.90;99.90;;;;;;5018934;28;20255;-79
2021/10/23 00:30:46;;;;;;;7.33;4.30;;;4.40;99.90;;;;;;5018219;28;20258;-81
2021/10/23 00:33:11;;;;;;;3.90;2.60;;;4.40;99.90;;;;;;5018609;28;20683;-80
2021/10/23 00:35:37;;;;;;;4.47;2.50;;;4.40;99.90;;;;;;5018236;28;20187;-79
2021/10/23 00:38:03;;;;;;;3.87;2.20;;;3.90;99.90;;;;;;5018334;28;20201;-80
2021/10/23 00:40:31;;;;;;;6.37;4.00;;;3.80;99.90;;;;;;5018141;28;20294;-80
2021/10/23 00:42:59;;;;;;;6.63;4.90;;;3.90;99.90;;;;;;5016888;28;20592;-81
2021/10/23 00:45:25;;;;;;;5.47;4.50;;;3.90;99.90;;;;;;5016707;28;20712;-80
2021/10/23 00:47:50;;;;;;;7.20;3.90;;;3.70;99.90;;;;;;5012743;28;20559;-80
2021/10/23 00:50:16;;;;;;;5.37;3.53;;;3.90;99.90;;;;;;5016074;28;20206;-80
2021/10/23 00:52:42;;;;;;;5.83;3.33;;;4.20;99.90;;;;;;5017284;28;20184;-81
2021/10/23 00:55:09;;;;;;;15.30;8.57;;;3.80;99.90;;;;;;5017713;28;20175;-79
2021/10/23 00:57:34;;;;;;;7.47;4.77;;;3.60;99.90;;;;;;4995330;28;20179;-80
2021/10/23 01:00:00;;;;;;;5.63;3.33;;;3.50;99.90;;;;;;5016084;28;20414;-81
2021/10/23 01:02:26;;;;;;;9.30;5.47;;;3.60;99.90;;;;;;5017595;28;20221;-79
2021/10/23 01:04:51;;;;;;;6.93;4.27;;;3.50;99.90;;;;;;5017169;28;20175;-80
2021/10/23 01:07:17;;;;;;;3.83;3.00;;;3.50;99.90;;;;;;5017968;28;20183;-79
2021/10/23 01:09:44;;;;;;;4.60;2.10;;;3.40;99.90;;;;;;5017454;28;20204;-80
2021/10/23 01:12:12;;;;;;;5.40;2.40;;;3.30;99.90;;;;;;5017432;28;20186;-80
2021/10/23 01:14:40;;;;;;;5.10;2.17;;;3.20;99.90;;;;;;5017762;28;20170;-80
2021/10/23 01:17:06;;;;;;;3.90;2.20;;;3.20;99.90;;;;;;5016480;28;20182;-81
2021/10/23 01:19:32;;;;;;;4.00;3.30;;;3.30;99.90;;;;;;5017200;28;20198;-80
2021/10/23 01:21:57;;;;;;;3.57;2.50;;;3.80;99.90;;;;;;5016798;28;20183;-79
2021/10/23 01:24:24;;;;;;;2.97;2.67;;;3.50;99.90;;;;;;5016575;28;20602;-80
2021/10/23 01:26:51;;;;;;;5.53;2.53;;;3.60;99.90;;;;;;5017221;28;20258;-80
2021/10/23 01:29:18;;;;;;;3.37;2.30;;;3.70;99.90;;;;;;5016500;28;20207;-80
2021/10/23 01:31:45;;;;;;;3.43;2.53;;;3.80;99.90;;;;;;5029214;22;20284;-77
2021/10/23 01:34:25;;;;;;;3.10;2.37;;;3.90;99.90;;;;;;5013074;28;20183;-78
2021/10/23 01:36:58;;;;;;;4.67;2.80;;;3.90;99.90;;;;;;5011982;28;20167;-77
2021/10/23 01:39:25;;;;;;;3.80;2.17;;;3.90;99.90;;;;;;5012139;28;20551;-78
2021/10/23 01:41:51;;;;;;;3.17;2.13;;;4.00;99.90;;;;;;5000530;28;20210;-77
2021/10/23 01:44:18;;;;;;;4.40;2.00;;;4.00;99.90;;;;;;5013536;28;20181;-77
2021/10/23 01:46:44;;;;;;;4.27;2.10;;;3.90;99.90;;;;;;5005816;28;20235;-78
2021/10/23 01:49:10;;;;;;;2.80;2.13;;;3.90;99.90;;;;;;4985267;28;20180;-77
2021/10/23 01:51:37;;;;;;;3.10;2.30;;;3.90;99.90;;;;;;4994875;28;20274;-78
2021/10/23 01:54:09;;;;;;;4.73;2.43;;;3.90;99.90;;;;;;5011733;28;20683;-78
2021/10/23 01:56:37;;;;;;;5.70;1.70;;;4.00;99.90;;;;;;5003348;28;20179;-77
2021/10/23 01:59:03;;;;;;;4.40;2.07;;;4.20;99.90;;;;;;5014125;28;20286;-77
2021/10/23 02:01:29;;;;;;;3.37;2.13;;;4.00;99.90;;;;;;5012285;28;20207;-77
2021/10/23 02:03:55;;;;;;;4.13;2.07;;;4.00;99.90;;;;;;5015304;28;20176;-77
2021/10/23 02:06:21;;;;;;;6.00;2.13;;;4.00;99.90;;;;;;5009019;28;20647;-77
2021/10/23 02:08:47;;;;;;;3.30;2.13;;;4.00;99.90;;;;;;5023815;28;20263;-77
2021/10/23 02:11:13;;;;;;;5.03;2.43;;;4.00;99.90;;;;;;5017761;28;20785;-77
2021/10/23 02:13:38;;;;;;;4.07;2.23;;;4.10;99.90;;;;;;5007121;28;20259;-76
2021/10/23 02:16:04;;;;;;;6.30;2.70;;;4.10;99.90;;;;;;5014091;28;20185;-78
2021/10/23 02:18:30;;;;;;;5.07;2.60;;;4.10;99.90;;;;;;5017797;28;20262;-77
2021/10/23 02:20:56;;;;;;;6.50;3.70;;;4.10;99.90;;;;;;5017250;28;20615;-78
2021/10/23 02:23:23;;;;;;;3.60;2.10;;;4.10;99.90;;;;;;5017747;28;20185;-78
2021/10/23 02:25:49;;;;;;;4.03;2.10;;;4.00;99.90;;;;;;5013360;28;20167;-77
2021/10/23 02:28:15;;;;;;;4.23;2.00;;;4.00;99.90;;;;;;5015823;28;20171;-78
2021/10/23 02:30:40;;;;;;;5.00;2.17;;;4.10;99.90;;;;;;5003113;28;20261;-78
2021/10/23 02:33:06;;;;;;;4.63;2.40;;;4.00;99.90;;;;;;5015253;28;20259;-77
2021/10/23 02:35:32;;;;;;;6.23;2.00;;;4.00;99.90;;;;;;5016627;28;20708;-77
2021/10/23 02:37:58;;;;;;;4.00;2.33;;;4.20;99.90;;;;;;5016858;28;20234;-77
2021/10/23 02:40:24;;;;;;;3.90;2.10;;;4.20;99.90;;;;;;5016137;28;20215;-78
2021/10/23 02:42:49;;;;;;;8.60;2.20;;;4.20;99.90;;;;;;5010660;28;20172;-78
2021/10/23 02:45:15;;;;;;;3.50;1.80;;;4.20;99.90;;;;;;4997859;28;20369;-77
2021/10/23 02:47:41;;;;;;;4.97;1.83;;;4.20;99.90;;;;;;5014355;28;20730;-78
2021/10/23 02:50:08;;;;;;;4.43;2.17;;;4.20;99.90;;;;;;5015085;28;20206;-78
2021/10/23 02:52:33;;;;;;;3.93;2.23;;;4.20;99.90;;;;;;5016541;28;20272;-78
2021/10/23 02:54:59;;;;;;;2.23;1.63;;;4.20;99.90;;;;;;5016667;28;20371;-77
2021/10/23 02:57:25;;;;;;;4.40;2.00;;;4.30;99.90;;;;;;5017018;28;20185;-78
2021/10/23 02:59:51;;;;;;;4.97;2.03;;;4.20;99.90;;;;;;5017156;28;20171;-77
2021/10/23 03:02:16;;;;;;;3.30;1.93;;;4.20;99.90;;;;;;5007094;28;20204;-77
2021/10/23 03:04:42;;;;;;;5.63;2.23;;;4.10;99.90;;;;;;5014428;28;20171;-78
2021/10/23 03:07:08;;;;;;;3.50;1.80;;;4.10;99.90;;;;;;5016631;28;20182;-77
2021/10/23 03:09:33;;;;;;;3.57;2.33;;;4.20;99.90;;;;;;5016501;28;20559;-78
2021/10/23 03:11:59;;;;;;;3.00;2.13;;;4.20;99.90;;;;;;5015179;28;20205;-77
2021/10/23 03:14:25;;;;;;;4.57;2.80;;;4.00;99.90;;;;;;5016302;28;20560;-78
2021/10/23 03:16:51;;;;;;;7.23;2.40;;;4.10;99.90;;;;;;5016022;28;20184;-77
2021/10/23 03:19:16;;;;;;;4.93;2.50;;;4.10;99.90;;;;;;5016555;28;20188;-77
2021/10/23 03:21:42;;;;;;;5.30;2.50;;;4.30;99.90;;;;;;5016082;28;20239;-77
2021/10/23 03:24:08;;;;;;;3.23;1.90;;;4.20;99.90;;;;;;5031598;28;20554;-78
2021/10/23 03:26:34;;;;;;;3.20;2.13;;;4.20;99.90;;;;;;5016551;28;20211;-78
2021/10/23 03:28:59;;;;;;;3.73;2.20;;;4.10;99.90;;;;;;5016869;28;20176;-77
2021/10/23 03:31:25;;;;;;;2.73;1.87;;;4.20;99.90;;;;;;4996034;28;20220;-78
2021/10/23 03:33:51;;;;;;;3.37;2.30;;;4.20;99.90;;;;;;4982387;28;20224;-78
2021/10/23 03:36:16;;;;;;;4.77;3.17;;;4.20;99.90;;;;;;4981452;28;20253;-77
2021/10/23 03:38:42;;;;;;;4.17;1.70;;;4.20;99.90;;;;;;5009035;28;20191;-78
2021/10/23 03:41:08;;;;;;;3.37;1.90;;;4.20;99.90;;;;;;5016711;28;20262;-77
2021/10/23 03:43:34;;;;;;;3.77;1.97;;;4.20;99.90;;;;;;5016596;28;20191;-77
2021/10/23 03:45:59;;;;;;;2.43;1.97;;;4.20;99.90;;;;;;5003264;28;20666;-77
2021/10/23 03:48:25;;;;;;;2.40;1.70;;;4.20;99.90;;;;;;4996986;28;20184;-78
2021/10/23 03:50:51;;;;;;;2.83;1.70;;;4.20;99.90;;;;;;4997093;28;20204;-78
2021/10/23 03:53:17;;;;;;;4.23;2.50;;;4.20;99.90;;;;;;4982410;28;20711;-77
2021/10/23 03:55:42;;;;;;;3.67;2.20;;;4.10;99.90;;;;;;5011070;28;20202;-78
2021/10/23 03:58:10;;;;;;;5.03;2.33;;;4.10;99.90;;;;;;4989540;28;20188;-78
2021/10/23 04:00:39;;;;;;;3.10;2.30;;;4.10;99.90;;;;;;4990826;28;20213;-77
2021/10/23 04:03:04;;;;;;;6.70;2.30;;;4.20;99.90;;;;;;4988900;28;20235;-78
2021/10/23 04:05:30;;;;;;;3.83;2.20;;;4.30;99.90;;;;;;4990838;28;20654;-77
2021/10/23 04:07:56;;;;;;;4.00;2.13;;;4.30;99.90;;;;;;4997414;28;20188;-78
2021/10/23 04:10:22;;;;;;;3.33;1.90;;;4.40;99.90;;;;;;5000606;28;20204;-78
2021/10/23 04:12:48;;;;;;;3.20;1.80;;;4.40;99.90;;;;;;4984989;28;20189;-77
2021/10/23 04:15:13;;;;;;;2.77;1.77;;;4.40;99.90;;;;;;5008696;28;20217;-78
2021/10/23 04:17:39;;;;;;;3.70;1.90;;;4.50;99.90;;;;;;4985615;28;20212;-78
2021/10/23 04:20:06;;;;;;;3.63;2.00;;;4.60;99.90;;;;;;4980171;28;20216;-78
2021/10/23 04:22:32;;;;;;;5.00;2.10;;;4.50;99.90;;;;;;4982093;28;20267;-79
2021/10/23 04:24:57;;;;;;;5.07;2.13;;;4.50;99.90;;;;;;4986746;28;20673;-78
2021/10/23 04:27:23;;;;;;;3.37;2.00;;;4.40;99.90;;;;;;4976999;28;20739;-78
2021/10/23 04:29:49;;;;;;;7.53;2.30;;;4.30;99.90;;;;;;4986537;28;20173;-78
2021/10/23 04:32:15;;;;;;;5.33;1.87;;;4.40;99.90;;;;;;4980889;28;20643;-77
2021/10/23 04:34:40;;;;;;;5.40;2.30;;;4.30;99.90;;;;;;5000929;28;20557;-78
2021/10/23 04:37:06;;;;;;;4.20;2.10;;;4.20;99.90;;;;;;4998518;28;20234;-76
2021/10/23 04:39:32;;;;;;;6.23;2.60;;;4.20;99.90;;;;;;5009290;28;20181;-77
2021/10/23 04:41:58;;;;;;;8.53;2.30;;;4.40;99.90;;;;;;5013635;28;20219;-77
2021/10/23 04:44:24;;;;;;;4.73;2.50;;;4.10;99.90;;;;;;5019807;28;20192;-77
2021/10/23 04:46:50;;;;;;;11.23;2.00;;;4.10;99.90;;;;;;5000800;28;20176;-77
2021/10/23 04:49:16;;;;;;;3.77;1.97;;;4.20;99.90;;;;;;5013694;28;20248;-76
2021/10/23 04:51:42;;;;;;;6.33;2.10;;;4.20;99.90;;;;;;5014666;28;20313;-77
2021/10/23 04:54:08;;;;;;;4.03;2.00;;;4.10;99.90;;;;;;5005414;28;20221;-78
2021/10/23 04:56:34;;;;;;;4.03;2.53;;;4.10;99.90;;;;;;5014753;28;20241;-79
2021/10/23 04:59:00;;;;;;;5.27;2.53;;;4.00;99.90;;;;;;5015512;28;20184;-77
2021/10/23 05:01:26;;;;;;;5.43;2.33;;;4.00;99.90;;;;;;5014841;28;20714;-78
2021/10/23 05:03:52;;;;;;;3.20;1.80;;;4.00;99.90;;;;;;5014022;28;20171;-77
2021/10/23 05:06:17;;;;;;;11.20;2.47;;;3.90;99.90;;;;;;5007206;28;20269;-77
2021/10/23 05:08:43;;;;;;;3.33;2.03;;;3.90;99.90;;;;;;5011083;28;20183;-78
2021/10/23 05:11:09;;;;;;;5.37;2.97;;;3.90;99.90;;;;;;5014660;28;20200;-76
2021/10/23 05:13:35;;;;;;;9.73;5.90;;;3.80;99.90;;;;;;5014282;28;20179;-78
2021/10/23 05:16:01;;;;;;;4.83;2.33;;;3.70;99.90;;;;;;5013368;28;20266;-77
2021/10/23 05:18:27;;;;;;;3.77;2.30;;;3.90;99.90;;;;;;5013490;28;20638;-78
2021/10/23 05:20:53;;;;;;;6.73;2.40;;;3.80;99.90;;;;;;5012688;28;20240;-78
2021/10/23 05:23:19;;;;;;;4.50;2.40;;;3.80;99.90;;;;;;5004550;28;20184;-77
2021/10/23 05:25:45;;;;;;;7.30;3.60;;;3.80;99.90;;;;;;4994986;28;20271;-78
2021/10/23 05:28:11;;;;;;;4.57;2.67;;;3.70;99.90;;;;;;5013612;28;20334;-78
2021/10/23 05:30:37;;;;;;;2.37;2.00;;;3.70;99.90;;;;;;5002448;28;20223;-79
2021/10/23 05:33:02;;;;;;;4.47;2.13;;;3.60;99.90;;;;;;4994965;28;20193;-77
2021/10/23 05:35:28;;;;;;;3.20;1.70;;;3.60;99.90;;;;;;4992196;28;20180;-78
2021/10/23 05:37:54;;;;;;;2.50;1.83;;;3.70;99.90;;;;;;4996454;28;20193;-78
2021/10/23 05:40:19;;;;;;;2.53;1.87;;;3.60;99.90;;;;;;4995483;28;20201;-78
2021/10/23 05:42:45;;;;;;;2.83;1.80;;;3.60;99.90;;;;;;5003362;28;20181;-78
2021/10/23 05:45:11;;;;;;;3.23;2.20;;;3.60;99.90;;;;;;4997647;28;20244;-78
2021/10/23 05:47:36;;;;;;;2.60;2.00;;;3.40;99.90;;;;;;4997231;28;20674;-78
2021/10/23 05:50:03;;;;;;;3.43;2.03;;;3.40;99.90;;;;;;4997265;28;20200;-78
2021/10/23 05:52:28;;;;;;;2.00;1.73;;;3.40;99.90;;;;;;4998422;28;20181;-77
2021/10/23 05:54:54;;;;;;;3.10;2.30;;;3.40;99.90;;;;;;5012315;28;20235;-78
2021/10/23 05:57:20;;;;;;;2.47;1.83;;;3.40;99.90;;;;;;4996777;28;20196;-78
2021/10/23 05:59:46;;;;;;;3.23;2.33;;;3.30;99.90;;;;;;4999183;28;20194;-78
2021/10/23 06:02:23;;;;;;;3.90;2.00;;;3.30;99.90;;;;;;5000321;28;20543;-79
2021/10/23 06:04:50;;;;;;;5.47;2.27;;;3.40;99.90;;;;;;4999203;28;20180;-77
2021/10/23 06:07:16;;;;;;;5.63;2.63;;;3.40;99.90;;;;;;4997668;28;20659;-78
2021/10/23 06:09:43;;;;;;;3.93;2.13;;;3.50;99.90;;;;;;4995919;28;20181;-77
2021/10/23 06:12:10;;;;;;;3.00;2.30;;;3.50;99.90;;;;;;4996212;28;20183;-78
2021/10/23 06:14:35;;;;;;;5.93;2.00;;;3.50;99.90;;;;;;4998747;28;20203;-78
2021/10/23 06:17:01;;;;;;;5.37;2.13;;;3.60;99.90;;;;;;5013396;28;20215;-78
2021/10/23 06:19:27;;;;;;;4.37;2.30;;;3.40;99.90;;;;;;5006530;28;20202;-78
2021/10/23 06:21:52;;;;;;;4.87;2.77;;;3.40;99.90;;;;;;5016685;28;20305;-77
2021/10/23 06:24:18;;;;;;;3.57;2.33;;;3.40;99.90;;;;;;5016554;28;20187;-77
2021/10/23 06:26:44;;;;;;;4.07;2.10;;;3.40;99.90;;;;;;5006821;28;20235;-78
2021/10/23 06:29:09;;;;;;;3.43;2.10;;;3.40;99.90;;;;;;5005827;28;20233;-78
2021/10/23 06:31:35;;;;;;;3.17;2.60;;;3.50;99.90;;;;;;5012376;28;20247;-78
2021/10/23 06:34:01;;;;;;;6.47;2.27;;;3.50;99.90;;;;;;5016530;28;20180;-78
2021/10/23 06:36:26;;;;;;;5.13;2.10;;;3.50;99.90;;;;;;5001197;28;20207;-78
2021/10/23 06:38:52;;;;;;;3.93;2.40;;;3.60;99.90;;;;;;5003080;28;20604;-78
2021/10/23 06:41:18;;;;;;;4.23;2.43;;;3.50;99.90;;;;;;4995765;28;20577;-78
2021/10/23 06:43:43;;;;;;;5.67;2.50;;;3.60;99.90;;;;;;5007971;28;20261;-77
2021/10/23 06:46:09;;;;;;;6.83;2.70;;;3.70;99.90;;;;;;5016230;28;20634;-78
2021/10/23 06:48:35;;;;;;;6.07;3.10;;;3.70;99.90;;;;;;5009455;28;20183;-77
2021/10/23 06:51:00;;;;;;;4.83;2.67;;;3.70;99.90;;;;;;5005202;28;20207;-78
2021/10/23 06:53:26;;;;;;;4.27;2.67;;;3.80;99.90;;;;;;4993974;28;20185;-77
2021/10/23 06:55:52;;;;;;;7.97;3.10;;;3.80;99.90;;;;;;4984772;28;20950;-77
2021/10/23 06:58:17;;;;;;;5.50;3.23;;;3.90;99.90;;;;;;5011975;28;20248;-76
2021/10/23 07:00:43;;;;;;;7.23;2.80;;;3.90;99.90;;;;;;4993806;28;20210;-78
2021/10/23 07:03:08;;;;;;;5.97;2.70;;;4.00;99.90;;;;;;4994380;28;20182;-78
2021/10/23 07:05:34;;;;;;;6.00;2.60;;;4.00;99.90;;;;;;4999110;28;20217;-78
2021/10/23 07:08:00;;;;;;;4.20;2.63;;;4.10;99.90;;;;;;4994542;28;20194;-78
2021/10/23 07:10:26;;;;;;;6.60;2.60;;;4.20;99.90;;;;;;4984021;28;20658;-78
2021/10/23 07:12:52;;;;;;;6.20;2.30;;;4.20;99.90;;;;;;4986930;28;20202;-78
2021/10/23 07:15:19;;;;;;;4.00;2.60;;;4.30;99.90;;;;;;5002021;28;20269;-78
2021/10/23 07:17:44;;;;;;;5.70;2.63;;;4.30;99.90;;;;;;5007907;28;20185;-77
2021/10/23 07:20:11;;;;;;;4.97;2.60;;;4.40;99.90;;;;;;5008880;28;20216;-78
2021/10/23 07:22:37;;;;;;;3.27;2.13;;;4.60;99.90;;;;;;5004266;28;20193;-77
2021/10/23 07:25:04;;;;;;;5.60;2.60;;;4.50;99.90;;;;;;5004143;28;20640;-76
2021/10/23 07:27:30;;;;;;;6.00;3.77;;;4.60;99.90;;;;;;5001042;28;20182;-78
2021/10/23 07:29:57;;;;;;;4.97;2.83;;;4.50;99.90;;;;;;5012237;28;20202;-76
2021/10/23 07:32:23;;;;;;;4.83;3.10;;;4.60;99.90;;;;;;5016284;28;20254;-78
2021/10/23 07:34:48;;;;;;;6.30;3.17;;;4.70;99.90;;;;;;5007623;28;20681;-78
2021/10/23 07:37:14;;;;;;;4.60;3.00;;;4.90;99.90;;;;;;5012752;28;20182;-78
2021/10/23 07:39:40;;;;;;;5.60;3.00;;;4.80;99.90;;;;;;5015167;28;20176;-78
2021/10/23 07:42:06;;;;;;;5.30;2.73;;;4.90;99.90;;;;;;5013696;28;20724;-78
2021/10/23 07:44:31;;;;;;;6.03;2.83;;;4.90;99.90;;;;;;5014999;28;20599;-78
2021/10/23 07:46:57;;;;;;;3.43;2.70;;;5.00;99.90;;;;;;5015039;28;20208;-78
2021/10/23 07:49:23;;;;;;;6.10;2.87;;;5.10;99.90;;;;;;5014898;28;20209;-78
2021/10/23 07:51:49;;;;;;;4.70;2.50;;;5.20;99.90;;;;;;5014793;28;20574;-77
2021/10/23 07:54:14;;;;;;;6.17;2.70;;;5.30;99.90;;;;;;5014771;28;20225;-77
2021/10/23 07:56:40;;;;;;;3.07;2.40;;;5.30;99.90;;;;;;5014857;28;20190;-75
2021/10/23 07:59:06;;;;;;;4.63;2.50;;;5.30;99.90;;;;;;5001814;28;20190;-78
2021/10/23 08:01:32;;;;;;;4.67;2.73;;;5.40;99.90;;;;;;5013033;28;20203;-77
2021/10/23 08:03:57;;;;;;;6.40;2.50;;;5.40;99.90;;;;;;5014844;28;20187;-77
2021/10/23 08:06:23;;;;;;;4.03;2.50;;;5.50;99.90;;;;;;5011742;28;20172;-75
2021/10/23 08:08:49;;;;;;;4.10;2.33;;;5.60;99.90;;;;;;4995436;28;20187;-78
2021/10/23 08:11:15;;;;;;;4.17;2.37;;;5.60;99.90;;;;;;4984212;28;20199;-78
2021/10/23 08:13:41;;;;;;;5.50;2.67;;;5.70;99.90;;;;;;4974534;28;20207;-78
2021/10/23 08:16:06;;;;;;;4.27;2.90;;;5.70;99.90;;;;;;4990190;28;20667;-78
2021/10/23 08:18:33;;;;;;;3.57;2.27;;;5.80;99.90;;;;;;4985540;28;20565;-78
2021/10/23 08:21:00;;;;;;;4.23;3.00;;;5.80;99.90;;;;;;4997329;28;20206;-79
2021/10/23 08:23:26;;;;;;;3.97;2.57;;;5.90;99.90;;;;;;5028379;28;20195;-78
2021/10/23 08:25:53;;;;;;;8.10;2.43;;;5.90;99.90;;;;;;4979286;28;20569;-78
2021/10/23 08:28:21;;;;;;;7.77;3.10;;;6.10;99.90;;;;;;5007970;28;20211;-78
2021/10/23 08:30:46;;;;;;;3.97;2.40;;;6.10;99.90;;;;;;5010341;28;20219;-78
2021/10/23 08:33:12;;;;;;;7.83;3.10;;;6.30;99.90;;;;;;4976859;28;20196;-77
2021/10/23 08:35:38;;;;;;;7.10;3.10;;;6.30;99.90;;;;;;5014298;28;20580;-78
2021/10/23 08:38:04;;;;;;;5.80;2.67;;;6.40;99.90;;;;;;5007735;28;20195;-79
2021/10/23 08:40:30;;;;;;;5.67;2.70;;;6.40;99.90;;;;;;5009209;28;20290;-78
2021/10/23 08:42:56;;;;;;;5.07;3.43;;;6.40;99.90;;;;;;5005074;28;20179;-78
2021/10/23 08:45:23;;;;;;;5.87;3.50;;;6.50;99.90;;;;;;5005386;28;20660;-78
2021/10/23 08:47:49;;;;;;;4.17;3.47;;;6.60;99.90;;;;;;4983144;28;20215;-78
2021/10/23 08:50:21;;;;;;;4.47;3.37;;;6.80;99.90;;;;;;4995517;28;20313;-77
2021/10/23 08:52:48;;;;;;;8.53;3.37;;;6.70;99.90;;;;;;5007770;28;20177;-79
2021/10/23 08:55:15;;;;;;;6.73;3.97;;;6.80;99.90;;;;;;4983743;28;20567;-77
2021/10/23 08:57:42;;;;;;;15.70;5.10;;;6.80;99.90;;;;;;5005395;28;20188;-78
2021/10/23 09:00:09;;;;;;;12.53;4.53;;;6.90;99.90;;;;;;4991317;28;20697;-78
2021/10/23 09:02:34;;;;;;;7.27;4.50;;;7.00;99.90;;;;;;5011355;28;20182;-77
2021/10/23 09:05:00;;;;;;;9.80;4.27;;;7.00;99.90;;;;;;5009664;28;20206;-77
2021/10/23 09:07:31;;;;;;;6.60;4.00;;;7.20;99.90;;;;;;5007640;28;20270;-78
2021/10/23 09:10:03;;;;;;;6.97;4.03;;;7.20;99.90;;;;;;5004560;28;20182;-77
2021/10/23 09:12:33;;;;;;;6.87;3.53;;;7.30;99.90;;;;;;5009428;28;20266;-77
2021/10/23 09:15:06;;;;;;;5.00;3.13;;;7.40;99.90;;;;;;5008275;28;20212;-78
2021/10/23 09:17:33;;;;;;;9.83;3.67;;;7.50;99.90;;;;;;5013168;28;20545;-77
2021/10/23 09:20:08;;;;;;;7.93;3.13;;;7.50;99.90;;;;;;5012206;28;20553;-77
2021/10/23 09:22:39;;;;;;;5.10;2.97;;;7.70;99.90;;;;;;4999090;28;20428;-78
2021/10/23 09:27:56;;;;;;;3.43;2.20;;;7.60;99.90;;;;;;5116330;23;20223;-78
2021/10/23 09:30:32;;;;;;;4.83;2.50;;;7.70;99.90;;;;;;5016396;28;20184;-79
2021/10/23 09:33:09;;;;;;;6.30;2.60;;;7.80;99.90;;;;;;4995569;28;20214;-78
2021/10/23 09:35:40;;;;;;;5.60;2.80;;;7.90;99.90;;;;;;4992132;28;20171;-79
2021/10/23 09:38:06;;;;;;;5.67;2.63;;;8.00;99.90;;;;;;4988936;28;20176;-79
2021/10/23 09:40:33;;;;;;;9.63;2.27;;;8.10;99.90;;;;;;5000230;28;20736;-77
2021/10/23 09:43:11;;;;;;;6.77;2.70;;;8.10;99.90;;;;;;4985320;28;20261;-77
2021/10/23 09:45:38;;;;;;;5.70;2.80;;;8.20;99.90;;;;;;4985792;28;20181;-76
2021/10/23 09:48:09;;;;;;;8.57;2.27;;;8.30;99.90;;;;;;5003266;28;20177;-78
2021/10/23 09:50:35;;;;;;;6.13;2.57;;;8.50;99.90;;;;;;5008110;28;20207;-76
2021/10/23 09:53:07;;;;;;;6.63;2.90;;;8.70;99.90;;;;;;4997044;28;20176;-77
2021/10/23 09:55:39;;;;;;;4.00;2.03;;;8.70;99.90;;;;;;4999278;28;20176;-78
2021/10/23 09:58:05;;;;;;;4.50;2.27;;;8.80;99.90;;;;;;4987937;28;20239;-79
2021/10/23 10:00:32;;;;;;;4.93;1.90;;;8.80;99.90;;;;;;5006213;28;20195;-78
2021/10/23 10:02:59;;;;;;;7.77;2.27;;;8.80;99.90;;;;;;5006728;28;20178;-79
2021/10/23 10:05:25;;;;;;;4.07;2.00;;;8.90;99.90;;;;;;5012178;28;20191;-78
2021/10/23 10:07:52;;;;;;;3.90;2.33;;;9.00;99.90;;;;;;5017856;28;20190;-78
2021/10/23 10:10:17;;;;;;;4.90;2.60;;;9.10;99.90;;;;;;5015883;28;20188;-79
2021/10/23 10:12:43;;;;;;;4.87;2.30;;;9.10;99.90;;;;;;5010032;28;20594;-79
2021/10/23 10:15:09;;;;;;;3.63;2.37;;;9.20;99.90;;;;;;5015853;28;20190;-79
2021/10/23 10:17:39;;;;;;;4.57;2.30;;;9.20;99.90;;;;;;5000062;28;20205;-79
2021/10/23 10:20:09;;;;;;;4.83;2.23;;;9.60;99.90;;;;;;5005624;28;20198;-78
2021/10/23 10:22:35;;;;;;;5.33;2.33;;;9.50;99.90;;;;;;5014224;28;20296;-79
2021/10/23 10:25:23;;;;;;;4.67;2.33;;;9.50;99.90;;;;;;5006576;28;20662;-77
2021/10/23 10:27:52;;;;;;;7.07;2.10;;;9.60;99.90;;;;;;5019553;28;20228;-78
2021/10/23 10:30:34;;;;;;;5.23;2.33;;;9.70;99.90;;;;;;5018144;28;20261;-78
2021/10/23 10:33:20;;;;;;;6.13;2.30;;;9.80;99.90;;;;;;5003125;28;20647;-77
2021/10/23 10:36:29;;;;;;;5.60;2.53;;;9.90;99.90;;;;;;5012100;28;20182;-77
2021/10/23 10:39:21;;;;;;;5.47;1.93;;;10.10;99.90;;;;;;5008310;28;20178;-77
2021/10/23 10:42:45;;;;;;;5.07;2.30;;;10.30;99.90;;;;;;5004805;28;20245;-77
2021/10/23 10:48:25;;;;;;;4.90;2.07;;;10.40;99.90;;;;;;5009219;28;20260;-77
2021/10/23 10:51:00;;;;;;;6.53;1.70;;;10.40;99.90;;;;;;5016589;28;20186;-78
2021/10/23 10:53:29;;;;;;;2.33;1.80;;;10.40;99.90;;;;;;5020083;28;20183;-78
2021/10/23 10:55:59;;;;;;;1.90;0.90;;;10.60;99.90;;;;;;5019292;28;20193;-77
2021/10/23 10:58:53;;;;;;;2.83;1.00;;;10.80;99.90;;;;;;5018591;28;20592;-78
2021/10/23 11:01:24;;;;;;;2.73;1.20;;;10.80;99.90;;;;;;5011848;28;20225;-78
2021/10/23 11:03:56;;;;;;;3.10;1.13;;;10.80;99.90;;;;;;5003856;28;20166;-78
2021/10/23 11:09:22;;;;;;;1.87;1.30;;;10.90;99.90;;;;;;4994550;28;20177;-77
2021/10/23 11:11:51;;;;;;;3.23;1.50;;;10.90;99.90;;;;;;4996562;28;20171;-77
2021/10/23 11:16:53;;;;;;;4.77;1.57;;;11.10;99.90;;;;;;5002508;28;20222;-78
2021/10/23 11:19:38;;;;;;;5.13;1.77;;;11.20;99.90;;;;;;4998977;28;20261;-78
2021/10/23 11:22:32;;;;;;;2.57;1.80;;;11.40;99.90;;;;;;5000746;28;20198;-79
2021/10/23 11:25:05;;;;;;;2.73;1.50;;;11.50;99.90;;;;;;5013009;28;20589;-78
2021/10/23 11:27:45;;;;;;;2.93;1.40;;;11.60;99.90;;;;;;5013766;28;20201;-77
2021/10/23 11:30:13;;;;;;;3.70;1.83;;;;;;;;;;5004426;28;20433;-79
2021/10/23 11:32:52;;;;;;;3.30;1.70;;;11.70;99.90;;;;;;4997818;28;20176;-79
2021/10/23 11:35:18;;;;;;;2.63;1.40;;;11.70;99.90;;;;;;5020799;28;20167;-79
2021/10/23 11:37:52;;;;;;;4.50;1.97;;;11.50;99.90;;;;;;5019901;28;20595;-80
2021/10/23 11:40:18;;;;;;;3.83;1.63;;;11.70;99.90;;;;;;5008426;28;20191;-79
2021/10/23 11:42:46;;;;;;;3.43;1.50;;;11.60;99.90;;;;;;5008894;28;20183;-78
2021/10/23 11:45:18;;;;;;;4.47;2.87;;;11.70;99.90;;;;;;4987930;28;20205;-78
2021/10/23 11:47:44;;;;;;;2.53;1.40;;;11.90;99.90;;;;;;5011142;28;20190;-79
2021/10/23 11:50:38;;;;;;;4.77;2.03;;;11.90;99.90;;;;;;5016412;28;20255;-77
2021/10/23 11:53:29;;;;;;;3.80;1.77;;;12.00;99.90;;;;;;5002637;28;20199;-78
2021/10/23 11:55:56;;;;;;;2.70;1.43;;;12.00;99.90;;;;;;5019415;28;20227;-79
2021/10/23 11:58:29;;;;;;;3.90;1.80;;;11.90;99.90;;;;;;5019778;28;20179;-79
2021/10/23 12:01:04;;;;;;;3.60;1.83;;;11.90;99.90;;;;;;5019363;28;20201;-78
2021/10/23 12:03:39;;;;;;;3.67;1.70;;;12.00;99.90;;;;;;5006088;28;20650;-79
2021/10/23 12:06:20;;;;;;;8.00;1.70;;;12.00;99.90;;;;;;5015911;28;20194;-78
2021/10/23 12:09:16;;;;;;;2.57;2.00;;;12.20;99.90;;;;;;5019060;28;20175;-79
2021/10/23 12:11:44;;;;;;;3.87;3.27;;;12.30;99.90;;;;;;5005741;28;20282;-78
2021/10/23 12:14:12;;;;;;;37.47;16.70;;;12.30;99.90;;;;;;4999153;28;20197;-76
2021/10/23 12:16:49;;;;;;;5.63;3.43;;;12.20;99.90;;;;;;5001082;28;20751;-77
2021/10/23 12:19:21;;;;;;;21.63;12.43;;;12.10;99.90;;;;;;5015714;28;20228;-78
2021/10/23 12:21:50;;;;;;;2.65;1.20;;;12.00;99.90;;;;;;5015782;28;20517;-77
2021/10/23 12:24:25;;;;;;;18.13;10.20;;;12.00;99.90;;;;;;5016176;28;20186;-79
2021/10/23 12:27:18;;;;;;;2.07;1.30;;;12.10;99.90;;;;;;4986335;28;20190;-77
2021/10/23 12:29:49;;;;;;;2.97;1.07;;;12.20;99.90;;;;;;5014297;28;20700;-80
2021/10/23 12:32:33;;;;;;;36.77;16.03;;;12.20;99.90;;;;;;5016607;28;20205;-79
2021/10/23 12:35:01;;;;;;;17.60;7.67;;;12.30;99.90;;;;;;5018312;28;20213;-79
2021/10/23 12:37:26;;;;;;;2.90;1.20;;;12.40;99.90;;;;;;5017885;28;20230;-78
2021/10/23 12:40:25;;;;;;;2.00;0.90;;;12.40;99.90;;;;;;5016167;28;20176;-78
2021/10/23 12:42:57;;;;;;;8.97;7.43;;;12.40;99.90;;;;;;5015954;28;20557;-78
2021/10/23 12:45:28;;;;;;;2.60;1.97;;;12.30;99.90;;;;;;4998469;28;20174;-77
2021/10/23 12:47:55;;;;;;;5.40;2.77;;;12.40;99.90;;;;;;5000570;28;20190;-79
2021/10/23 12:50:22;;;;;;;3.57;2.27;;;12.40;99.90;;;;;;5013411;28;20252;-80
2021/10/23 12:52:52;;;;;;;3.13;1.03;;;12.50;99.90;;;;;;4990144;28;20182;-78
2021/10/23 12:55:19;;;;;;;1.80;1.47;;;12.50;99.90;;;;;;5000439;28;20275;-79
2021/10/23 12:57:45;;;;;;;1.57;1.27;;;12.50;99.90;;;;;;5000523;28;20202;-78
2021/10/23 13:00:12;;;;;;;15.90;10.97;;;12.50;99.90;;;;;;5012263;28;20177;-79
2021/10/23 13:02:37;;;;;;;4.37;2.20;;;12.60;99.90;;;;;;5019987;28;20175;-79
2021/10/23 13:05:04;;;;;;;4.07;3.67;;;12.60;99.90;;;;;;5019563;28;20178;-78
2021/10/23 13:07:30;;;;;;;1.83;0.80;;;12.60;99.90;;;;;;5035668;28;20205;-79
2021/10/23 13:09:56;;;;;;;4.10;3.40;;;12.50;99.90;;;;;;5014318;28;20263;-74
2021/10/23 13:12:22;;;;;;;3.50;2.90;;;12.60;99.90;;;;;;5013135;28;20171;-75